createdAt,value
2023-05-08T00:02:42.052Z,36.15
2023-05-08T00:05:09.167Z,36.15
2023-05-08T00:07:37.836Z,35.28
2023-05-08T00:10:06.389Z,36.67
2023-05-08T00:12:33.345Z,37.75
2023-05-08T00:15:00.599Z,37.97
2023-05-08T00:17:27.837Z,38.33
2023-05-08T00:19:54.830Z,37.30
2023-05-08T00:22:21.646Z,37.75
2023-05-08T00:24:48.615Z,39.03
2023-05-08T00:27:15.564Z,39.58
2023-05-08T00:29:43.124Z,38.50
2023-05-08T00:32:10.530Z,38.10
2023-05-08T00:34:37.423Z,39.83
2023-05-08T00:37:04.283Z,38.90
2023-05-08T00:39:32.138Z,40.25
2023-05-08T00:41:59.132Z,40.45
2023-05-08T00:44:26.238Z,40.05
2023-05-08T00:46:53.316Z,42.38
2023-05-08T00:49:20.602Z,41.90
2023-05-08T00:51:50.887Z,43.55
2023-05-08T00:54:19.032Z,44.85
2023-05-08T00:56:46.515Z,45.00
2023-05-08T00:59:16.001Z,44.33
2023-05-08T01:01:44.139Z,42.70
2023-05-08T01:04:11.306Z,42.53
2023-05-08T01:09:06.834Z,43.65
2023-05-08T01:11:50.174Z,43.10
2023-05-08T01:14:21.452Z,43.28
2023-05-08T01:17:05.356Z,41.03
2023-05-08T01:22:05.891Z,41.50
2023-05-08T01:33:03.477Z,41.35
2023-05-08T01:35:32.627Z,42.27
2023-05-08T01:38:06.476Z,41.40
2023-05-08T01:40:48.184Z,44.30
2023-05-08T01:43:20.497Z,45.05
2023-05-08T01:45:50.340Z,45.17
2023-05-08T01:48:32.712Z,44.90
2023-05-08T01:51:06.052Z,47.45
2023-05-08T01:53:41.305Z,45.25
2023-05-08T01:56:14.516Z,46.08
2023-05-08T01:58:42.854Z,44.47
2023-05-08T02:11:04.251Z,43.33
2023-05-08T02:13:33.203Z,43.55
2023-05-08T02:16:01.900Z,42.15
2023-05-08T02:18:31.960Z,42.42
2023-05-08T02:21:02.310Z,42.30
2023-05-08T02:23:29.887Z,40.10
2023-05-08T02:25:57.453Z,41.15
2023-05-08T02:28:25.133Z,38.65
2023-05-08T02:30:53.271Z,38.60
2023-05-08T02:33:21.121Z,38.67
2023-05-08T02:43:16.041Z,42.35
2023-05-08T02:46:14.862Z,41.55
2023-05-08T02:48:48.363Z,38.53
2023-05-08T02:56:47.148Z,33.20
2023-05-08T02:59:20.311Z,33.50
2023-05-08T03:02:04.842Z,30.00
2023-05-08T03:04:36.668Z,27.73
2023-05-08T03:07:05.687Z,28.30
2023-05-08T03:09:42.959Z,28.10
2023-05-08T03:17:17.760Z,29.40
2023-05-08T03:27:10.401Z,25.50
2023-05-08T03:29:39.839Z,24.35
2023-05-08T03:41:56.895Z,24.73
2023-05-08T03:44:24.413Z,24.40
2023-05-08T03:46:52.899Z,24.48
2023-05-08T03:49:22.818Z,25.15
2023-05-08T03:51:50.207Z,23.98
2023-05-08T03:54:17.243Z,22.95
2023-05-08T03:56:46.087Z,23.88
2023-05-08T03:59:25.294Z,25.00
2023-05-08T04:02:24.358Z,22.80
2023-05-08T04:05:01.738Z,22.27
2023-05-08T04:07:36.858Z,22.42
2023-05-08T04:10:17.704Z,21.50
2023-05-08T04:13:05.639Z,21.25
2023-05-08T04:15:38.639Z,23.05
2023-05-08T04:18:12.784Z,22.90
2023-05-08T04:20:41.518Z,22.30
2023-05-08T04:23:14.918Z,22.35
2023-05-08T04:25:44.384Z,22.80
2023-05-08T04:28:12.449Z,20.70
2023-05-08T04:30:41.227Z,19.60
2023-05-08T04:33:09.405Z,19.50
2023-05-08T04:35:36.400Z,18.80
2023-05-08T04:38:03.477Z,17.60
2023-05-08T04:40:30.313Z,17.10
2023-05-08T04:42:57.695Z,17.50
2023-05-08T04:45:25.541Z,16.80
2023-05-08T04:47:52.481Z,15.65
2023-05-08T04:50:20.296Z,15.50
2023-05-08T04:52:47.370Z,14.85
2023-05-08T04:55:15.867Z,13.23
2023-05-08T04:57:42.774Z,11.70
2023-05-08T05:00:10.846Z,10.30
2023-05-08T05:02:38.378Z,10.80
2023-05-08T05:05:05.910Z,10.38
2023-05-08T05:07:33.176Z,10.25
2023-05-08T05:10:00.953Z,10.55
2023-05-08T05:12:28.237Z,9.93
2023-05-08T05:14:56.633Z,10.35
2023-05-08T05:17:23.561Z,11.02
2023-05-08T05:19:51.607Z,10.57
2023-05-08T05:22:21.828Z,10.27
2023-05-08T05:24:48.714Z,10.18
2023-05-08T05:27:15.586Z,10.43
2023-05-08T05:29:42.668Z,10.52
2023-05-08T05:32:11.720Z,9.77
2023-05-08T05:34:38.778Z,9.68
2023-05-08T05:37:05.902Z,8.98
2023-05-08T05:39:32.933Z,8.05
2023-05-08T05:41:59.871Z,8.82
2023-05-08T05:44:26.846Z,8.70
2023-05-08T05:46:54.826Z,8.35
2023-05-08T05:49:21.667Z,8.70
2023-05-08T05:51:48.694Z,8.13
2023-05-08T05:54:15.672Z,9.48
2023-05-08T05:56:42.712Z,8.70
2023-05-08T05:59:10.558Z,9.45
2023-05-08T06:01:38.757Z,9.10
2023-05-08T06:04:07.370Z,8.18
2023-05-08T06:06:34.415Z,8.32
2023-05-08T06:09:01.671Z,8.80
2023-05-08T06:11:28.553Z,8.57
2023-05-08T06:13:56.224Z,8.27
2023-05-08T06:16:24.941Z,8.20
2023-05-08T06:18:51.988Z,8.50
2023-05-08T06:21:18.938Z,8.13
2023-05-08T06:23:46.201Z,8.40
2023-05-08T06:26:13.389Z,8.65
2023-05-08T06:28:40.417Z,8.18
2023-05-08T06:31:09.071Z,9.15
2023-05-08T06:33:35.977Z,8.40
2023-05-08T06:36:08.930Z,8.25
2023-05-08T06:38:35.825Z,8.68
2023-05-08T06:41:02.726Z,9.90
2023-05-08T06:43:31.506Z,9.73
2023-05-08T06:45:59.092Z,10.35
2023-05-08T06:48:29.290Z,10.85
2023-05-08T06:50:57.338Z,8.90
2023-05-08T06:53:24.321Z,9.10
2023-05-08T06:55:51.915Z,9.07
2023-05-08T06:58:18.721Z,9.90
2023-05-08T07:00:46.133Z,10.85
2023-05-08T07:03:13.643Z,10.55
2023-05-08T07:05:40.599Z,11.50
2023-05-08T07:08:07.725Z,10.65
2023-05-08T07:10:34.831Z,11.60
2023-05-08T07:13:01.999Z,11.23
2023-05-08T07:15:31.538Z,10.38
2023-05-08T07:17:58.990Z,11.73
2023-05-08T07:20:26.915Z,12.52
2023-05-08T07:22:54.055Z,11.45
2023-05-08T07:25:21.053Z,13.35
2023-05-08T07:27:48.113Z,13.55
2023-05-08T07:30:15.372Z,14.07
2023-05-08T07:32:42.259Z,13.05
2023-05-08T07:35:12.294Z,12.15
2023-05-08T07:37:40.239Z,13.02
2023-05-08T07:40:08.778Z,11.73
2023-05-08T07:42:43.173Z,13.02
2023-05-08T07:45:11.937Z,12.20
2023-05-08T07:47:57.585Z,12.65
2023-05-08T07:50:26.607Z,13.52
2023-05-08T07:52:54.088Z,13.52
2023-05-08T07:55:21.658Z,13.07
2023-05-08T07:57:48.734Z,12.82
2023-05-08T08:00:16.184Z,13.93
2023-05-08T08:02:44.305Z,14.88
2023-05-08T08:05:12.926Z,13.82
2023-05-08T08:07:40.143Z,14.43
2023-05-08T08:10:08.577Z,13.80
2023-05-08T08:12:35.513Z,13.68
2023-05-08T08:15:02.507Z,13.80
2023-05-08T08:17:29.499Z,14.32
2023-05-08T08:19:57.188Z,14.77
2023-05-08T08:22:25.758Z,12.40
2023-05-08T08:24:55.907Z,13.80
2023-05-08T08:27:23.301Z,12.38
2023-05-08T08:29:52.581Z,13.13
2023-05-08T08:32:26.666Z,14.27
2023-05-08T08:34:53.548Z,14.18
2023-05-08T08:37:20.438Z,14.90
2023-05-08T08:39:49.277Z,14.43
2023-05-08T08:42:16.361Z,15.40
2023-05-08T08:44:43.360Z,15.35
2023-05-08T08:47:17.685Z,14.82
2023-05-08T08:49:49.690Z,15.68
2023-05-08T08:52:27.048Z,15.63
2023-05-08T08:54:57.066Z,16.05
2023-05-08T08:57:26.292Z,16.60
2023-05-08T08:59:55.274Z,15.27
2023-05-08T09:02:24.004Z,16.52
2023-05-08T09:04:51.101Z,16.55
2023-05-08T09:07:19.612Z,16.77
2023-05-08T09:09:48.790Z,15.88
2023-05-08T09:12:15.666Z,15.60
2023-05-08T09:14:42.777Z,14.30
2023-05-08T09:17:10.317Z,12.77
2023-05-08T09:19:37.532Z,13.13
2023-05-08T09:22:07.264Z,12.98
2023-05-08T09:25:12.154Z,15.32
2023-05-08T09:27:40.450Z,15.85
2023-05-08T09:30:12.229Z,18.00
2023-05-08T09:32:43.897Z,19.08
2023-05-08T09:35:12.464Z,18.63
2023-05-08T09:37:41.726Z,18.27
2023-05-08T09:40:15.888Z,19.13
2023-05-08T09:42:42.807Z,18.17
2023-05-08T09:45:10.344Z,18.63
2023-05-08T09:47:39.774Z,18.48
2023-05-08T09:50:09.106Z,17.38
2023-05-08T09:52:38.000Z,17.02
2023-05-08T09:55:10.070Z,18.55
2023-05-08T09:57:39.595Z,20.48
2023-05-08T10:00:10.988Z,20.52
2023-05-08T10:02:39.916Z,22.05
2023-05-08T10:05:34.665Z,22.88
2023-05-08T10:08:23.539Z,23.48
2023-05-08T10:10:51.330Z,22.60
2023-05-08T10:13:18.204Z,21.38
2023-05-08T10:15:45.889Z,20.30
2023-05-08T10:18:16.047Z,19.58
2023-05-08T10:20:45.779Z,20.00
2023-05-08T10:23:17.617Z,20.85
2023-05-08T10:25:55.184Z,19.63
2023-05-08T10:28:43.904Z,16.75
2023-05-08T10:31:16.348Z,17.27
2023-05-08T10:33:46.297Z,17.98
2023-05-08T10:36:14.877Z,16.25
2023-05-08T10:38:43.491Z,16.58
2023-05-08T10:41:11.380Z,16.98
2023-05-08T10:43:42.799Z,16.10
2023-05-08T10:46:42.240Z,15.73
2023-05-08T10:49:25.730Z,16.30
2023-05-08T10:52:30.536Z,14.95
2023-05-08T10:55:17.620Z,16.88
2023-05-08T10:58:09.602Z,17.70
2023-05-08T11:00:59.991Z,15.27
2023-05-08T11:03:32.685Z,17.70
2023-05-08T11:06:01.555Z,18.15
2023-05-08T11:08:30.655Z,18.27
2023-05-08T11:11:00.761Z,20.73
2023-05-08T11:13:37.456Z,22.75
2023-05-08T11:16:08.559Z,23.35
2023-05-08T11:18:48.580Z,22.27
2023-05-08T11:21:23.887Z,20.55
2023-05-08T11:23:58.176Z,19.05
2023-05-08T11:26:42.588Z,17.80
2023-05-08T11:29:18.407Z,16.25
2023-05-08T11:31:52.853Z,14.35
2023-05-08T11:34:44.462Z,12.63
2023-05-08T11:37:21.722Z,12.02
2023-05-08T11:39:49.230Z,12.35
2023-05-08T11:42:26.031Z,12.43
2023-05-08T11:45:19.730Z,12.35
2023-05-08T11:47:46.684Z,12.10
2023-05-08T11:50:14.695Z,11.98
2023-05-08T11:52:43.431Z,11.40
2023-05-08T11:55:13.873Z,12.07
2023-05-08T11:57:40.941Z,13.00
2023-05-08T12:00:10.026Z,12.90
2023-05-08T12:02:42.128Z,12.57
2023-05-08T12:05:11.866Z,12.50
2023-05-08T12:07:49.850Z,11.45
2023-05-08T12:10:17.761Z,12.93
2023-05-08T12:12:45.446Z,12.60
2023-05-08T12:15:14.844Z,12.40
2023-05-08T12:17:42.912Z,11.20
2023-05-08T12:20:12.249Z,10.25
2023-05-08T12:22:41.425Z,10.13
2023-05-08T12:25:10.640Z,10.15
2023-05-08T12:27:38.598Z,10.82
2023-05-08T12:30:10.870Z,12.63
2023-05-08T12:32:40.088Z,10.85
2023-05-08T12:35:09.372Z,11.43
2023-05-08T12:37:37.195Z,10.25
2023-05-08T12:40:07.093Z,10.95
2023-05-08T12:42:43.997Z,10.63
2023-05-08T12:45:20.906Z,9.52
2023-05-08T12:47:49.631Z,10.45
2023-05-08T12:50:17.930Z,9.13
2023-05-08T12:52:45.170Z,9.63
2023-05-08T12:55:30.003Z,9.27
2023-05-08T12:58:11.953Z,8.20
2023-05-08T13:00:50.090Z,8.43
2023-05-08T13:03:24.583Z,8.45
2023-05-08T13:05:52.914Z,8.82
2023-05-08T13:08:20.018Z,8.45
2023-05-08T13:10:46.904Z,7.97
2023-05-08T13:13:15.519Z,8.85
2023-05-08T13:15:43.017Z,7.90
2023-05-08T13:18:10.928Z,8.02
2023-05-08T13:20:38.597Z,6.65
2023-05-08T13:23:06.252Z,7.05
2023-05-08T13:25:33.918Z,6.55
2023-05-08T13:28:02.798Z,7.25
2023-05-08T13:30:29.869Z,7.57
2023-05-08T13:32:57.192Z,8.45
2023-05-08T13:35:26.565Z,7.43
2023-05-08T13:37:53.632Z,8.55
2023-05-08T13:40:20.581Z,7.97
2023-05-08T13:42:48.068Z,8.93
2023-05-08T13:45:15.630Z,9.10
2023-05-08T13:47:43.163Z,8.90
2023-05-08T13:50:13.532Z,8.77
2023-05-08T13:52:41.165Z,8.38
2023-05-08T13:55:09.951Z,8.48
2023-05-08T13:57:37.600Z,8.57
2023-05-08T14:00:06.297Z,7.75
2023-05-08T14:02:36.002Z,7.75
2023-05-08T14:05:03.872Z,8.00
2023-05-08T14:07:30.829Z,7.88
2023-05-08T14:09:57.811Z,7.68
2023-05-08T14:12:26.247Z,7.35
2023-05-08T14:14:53.248Z,8.07
2023-05-08T14:17:20.381Z,7.03
2023-05-08T14:19:47.423Z,8.20
2023-05-08T14:22:14.398Z,7.10
2023-05-08T14:24:41.381Z,7.97
2023-05-08T14:27:09.449Z,7.65
2023-05-08T14:29:36.529Z,8.38
2023-05-08T14:32:03.793Z,7.80
2023-05-08T14:34:31.581Z,7.65
2023-05-08T14:36:59.036Z,7.80
2023-05-08T14:39:26.179Z,8.35
2023-05-08T14:44:23.142Z,8.30
2023-05-08T14:46:50.260Z,8.05
2023-05-08T14:49:25.402Z,7.30
2023-05-08T14:51:55.942Z,7.20
2023-05-08T14:54:22.958Z,7.35
2023-05-08T14:56:50.205Z,6.70
2023-05-08T14:59:17.322Z,6.97
2023-05-08T15:01:44.427Z,6.72
2023-05-08T15:04:12.006Z,6.70
2023-05-08T15:06:40.517Z,7.07
2023-05-08T15:09:12.050Z,6.93
2023-05-08T15:11:39.275Z,8.10
2023-05-08T15:14:06.383Z,6.35
2023-05-08T15:16:34.179Z,6.97
2023-05-08T15:19:01.149Z,7.18
2023-05-08T15:21:28.677Z,7.72
2023-05-08T15:23:56.236Z,6.65
2023-05-08T15:26:23.581Z,7.45
2023-05-08T15:28:51.040Z,7.32
2023-05-08T15:31:19.900Z,7.60
2023-05-08T15:33:48.262Z,7.70
2023-05-08T15:36:15.732Z,6.82
2023-05-08T15:38:43.194Z,6.50
2023-05-08T15:41:15.044Z,7.43
2023-05-08T15:43:43.142Z,6.60
2023-05-08T15:46:10.987Z,6.18
2023-05-08T15:48:37.889Z,6.72
2023-05-08T15:51:04.794Z,6.38
2023-05-08T15:53:34.159Z,6.30
2023-05-08T15:56:01.412Z,6.15
2023-05-08T15:58:28.575Z,6.53
2023-05-08T16:00:56.967Z,6.45
2023-05-08T16:03:24.964Z,6.70
2023-05-08T16:05:52.020Z,7.10
2023-05-08T16:08:19.888Z,6.43
2023-05-08T16:10:46.764Z,7.15
2023-05-08T16:13:13.844Z,6.63
2023-05-08T16:15:41.330Z,6.85
2023-05-08T16:18:08.297Z,7.53
2023-05-08T16:20:36.369Z,7.15
2023-05-08T16:23:03.483Z,6.93
2023-05-08T16:25:30.415Z,6.80
2023-05-08T16:27:57.337Z,6.68
2023-05-08T16:30:24.278Z,5.70
2023-05-08T16:32:51.255Z,6.25
2023-05-08T16:35:19.582Z,5.93
2023-05-08T16:37:46.937Z,6.88
2023-05-08T16:40:14.051Z,6.43
2023-05-08T16:42:41.324Z,6.10
2023-05-08T16:45:09.464Z,5.35
2023-05-08T16:47:36.711Z,5.60
2023-05-08T16:50:05.501Z,6.35
2023-05-08T16:52:36.982Z,6.00
2023-05-08T16:55:04.514Z,5.55
2023-05-08T16:57:31.326Z,5.85
2023-05-08T16:59:59.809Z,6.03
2023-05-08T17:02:27.805Z,6.00
2023-05-08T17:04:54.834Z,6.53
2023-05-08T17:07:21.822Z,6.20
2023-05-08T17:09:52.989Z,5.50
2023-05-08T17:12:20.155Z,5.05
2023-05-08T17:14:47.641Z,5.18
2023-05-08T17:17:14.517Z,5.32
2023-05-08T17:19:43.338Z,5.25
2023-05-08T17:22:11.158Z,4.80
2023-05-08T17:24:38.324Z,4.90
2023-05-08T17:27:08.784Z,5.20
2023-05-08T17:29:36.283Z,4.97
2023-05-08T17:32:03.583Z,4.85
2023-05-08T17:34:30.566Z,5.00
2023-05-08T17:36:57.564Z,4.72
2023-05-08T17:39:24.616Z,5.13
2023-05-08T17:41:52.000Z,4.97
2023-05-08T17:44:19.134Z,5.13
2023-05-08T17:46:46.236Z,5.05
2023-05-08T17:49:14.786Z,5.22
2023-05-08T17:51:42.813Z,5.18
2023-05-08T17:54:09.757Z,6.15
2023-05-08T17:56:36.761Z,5.78
2023-05-08T17:59:03.726Z,5.35
2023-05-08T18:01:31.091Z,5.25
2023-05-08T18:03:58.095Z,5.80
2023-05-08T18:06:25.127Z,5.00
2023-05-08T18:08:52.079Z,5.13
2023-05-08T18:11:28.503Z,5.45
2023-05-08T18:13:55.765Z,5.65
2023-05-08T18:16:23.277Z,5.10
2023-05-08T18:18:50.672Z,5.22
2023-05-08T18:21:17.689Z,5.15
2023-05-08T18:23:44.756Z,5.68
2023-05-08T18:26:16.365Z,5.63
2023-05-08T18:28:44.451Z,5.50
2023-05-08T18:31:11.960Z,5.18
2023-05-08T18:33:39.912Z,6.40
2023-05-08T18:36:07.389Z,5.57
2023-05-08T18:38:35.026Z,5.10
2023-05-08T18:41:06.079Z,5.78
2023-05-08T18:43:33.534Z,5.43
2023-05-08T18:46:00.692Z,5.32
2023-05-08T18:48:28.011Z,5.88
2023-05-08T18:50:58.882Z,5.70
2023-05-08T18:53:26.042Z,5.75
2023-05-08T18:55:53.251Z,6.10
2023-05-08T18:58:20.460Z,5.60
2023-05-08T19:00:47.740Z,6.18
2023-05-08T19:03:15.120Z,6.00
2023-05-08T19:05:42.598Z,5.95
2023-05-08T19:08:09.817Z,5.28
2023-05-08T19:10:36.758Z,5.50
2023-05-08T19:13:03.765Z,5.40
2023-05-08T19:15:30.674Z,5.63
2023-05-08T19:17:57.829Z,6.10
2023-05-08T19:20:24.915Z,5.50
2023-05-08T19:22:51.802Z,5.50
2023-05-08T19:25:18.722Z,5.68
2023-05-08T19:27:45.747Z,5.45
2023-05-08T19:30:13.354Z,5.63
2023-05-08T19:32:40.652Z,6.43
2023-05-08T19:35:09.220Z,5.70
2023-05-08T19:37:36.527Z,5.43
2023-05-08T19:40:04.097Z,5.80
2023-05-08T19:42:31.069Z,6.00
2023-05-08T19:44:57.949Z,6.65
2023-05-08T19:47:24.817Z,6.20
2023-05-08T19:49:51.744Z,6.68
2023-05-08T19:52:19.785Z,6.60
2023-05-08T19:54:47.525Z,6.82
2023-05-08T19:57:14.531Z,6.63
2023-05-08T19:59:41.377Z,6.35
2023-05-08T20:02:08.330Z,7.15
2023-05-08T20:04:48.874Z,7.10
2023-05-08T20:07:22.052Z,6.97
2023-05-08T20:09:49.005Z,6.78
2023-05-08T20:12:16.101Z,7.47
2023-05-08T20:14:43.156Z,7.18
2023-05-08T20:17:10.041Z,7.30
2023-05-08T20:19:36.952Z,7.90
2023-05-08T20:22:04.127Z,7.32
2023-05-08T20:24:31.044Z,7.95
2023-05-08T20:26:58.138Z,9.10
2023-05-08T20:29:26.499Z,8.43
2023-05-08T20:31:53.917Z,8.07
2023-05-08T20:34:22.122Z,8.75
2023-05-08T20:36:50.085Z,8.88
2023-05-08T20:39:17.049Z,8.77
2023-05-08T20:41:44.294Z,8.60
2023-05-08T20:44:12.516Z,8.60
2023-05-08T20:46:40.899Z,8.93
2023-05-08T20:49:07.815Z,8.27
2023-05-08T20:51:37.328Z,8.95
2023-05-08T20:54:04.317Z,9.13
2023-05-08T20:56:32.078Z,9.63
2023-05-08T20:58:58.989Z,9.38
2023-05-08T21:01:26.085Z,9.57
2023-05-08T21:03:53.641Z,9.75
2023-05-08T21:06:20.531Z,10.65
2023-05-08T21:08:47.487Z,10.25
2023-05-08T21:11:14.805Z,10.32
2023-05-08T21:13:45.187Z,10.07
2023-05-08T21:16:12.305Z,10.65
2023-05-08T21:18:39.222Z,10.20
2023-05-08T21:21:18.078Z,9.65
2023-05-08T21:23:45.252Z,10.20
2023-05-08T21:26:12.659Z,10.52
2023-05-08T21:28:40.488Z,9.73
2023-05-08T21:31:07.984Z,10.85
2023-05-08T21:33:35.115Z,10.35
2023-05-08T21:36:03.646Z,10.38
2023-05-08T21:38:30.739Z,10.65
2023-05-08T21:40:57.580Z,10.43
2023-05-08T21:43:24.614Z,10.15
2023-05-08T21:45:51.506Z,9.63
2023-05-08T21:48:18.381Z,10.15
2023-05-08T21:50:45.341Z,9.95
2023-05-08T21:53:12.245Z,10.13
2023-05-08T21:55:39.296Z,9.73
2023-05-08T21:58:07.272Z,9.90
2023-05-08T22:00:34.121Z,9.27
2023-05-08T22:03:02.160Z,8.88
2023-05-08T22:05:33.166Z,9.55
2023-05-08T22:08:00.455Z,8.70
2023-05-08T22:10:27.427Z,9.43
2023-05-08T22:12:55.109Z,9.52
2023-05-08T22:15:29.622Z,8.55
2023-05-08T22:17:57.889Z,9.13
2023-05-08T22:20:25.013Z,8.95
2023-05-08T22:22:51.948Z,8.18
2023-05-08T22:25:19.025Z,8.70
2023-05-08T22:27:46.146Z,8.93
2023-05-08T22:30:13.490Z,8.18
2023-05-08T22:32:40.704Z,8.35
2023-05-08T22:35:08.136Z,7.75
2023-05-08T22:37:35.000Z,8.25
2023-05-08T22:40:02.106Z,8.82
2023-05-08T22:42:29.206Z,8.45
2023-05-08T22:44:56.916Z,8.77
2023-05-08T22:47:24.119Z,8.65
2023-05-08T22:49:51.459Z,8.95
2023-05-08T22:52:18.321Z,8.50
2023-05-08T22:54:45.152Z,7.95
2023-05-08T22:57:12.299Z,8.45
2023-05-08T22:59:39.136Z,8.50
2023-05-08T23:02:06.081Z,9.07
2023-05-08T23:04:33.552Z,8.13
2023-05-08T23:07:00.593Z,7.93
2023-05-08T23:09:27.531Z,9.20
2023-05-08T23:11:54.407Z,8.55
2023-05-08T23:14:21.320Z,8.95
2023-05-08T23:16:48.363Z,8.90
2023-05-08T23:19:16.154Z,8.88
2023-05-08T23:21:43.098Z,9.68
2023-05-08T23:24:10.265Z,9.35
2023-05-08T23:26:37.161Z,9.05
2023-05-08T23:29:04.416Z,9.50
2023-05-08T23:31:31.369Z,9.10
2023-05-08T23:33:58.408Z,9.85
2023-05-08T23:36:25.281Z,8.90
2023-05-08T23:38:52.157Z,9.98
2023-05-08T23:41:18.994Z,9.20
2023-05-08T23:43:45.821Z,9.90
2023-05-08T23:46:12.748Z,9.90
2023-05-08T23:48:39.662Z,9.73
2023-05-08T23:51:06.914Z,9.68
2023-05-08T23:53:33.824Z,10.15
2023-05-08T23:56:00.847Z,9.75
2023-05-08T23:58:27.715Z,10.13
